Time;durP1;ratioP1;P1;durP2;ratioP2;P2;SDS_P1;SDS_P2;PMS_P1;PMS_P2;Temp;Humidity;BMP_temperature;BMP_pressure;BME280_temperature;BME280_humidity;BME280_pressure;Samples;Min_cycle;Max_cycle;Signal;HPM_P1;HPM_P2
2021/12/04 00:02:06;;;;;;;16.02;9.27;;;5.50;99.90;;;;;;5033903;28;20564;-72
2021/12/04 00:04:35;;;;;;;23.58;13.02;;;5.50;99.90;;;;;;5033772;28;20482;-72
2021/12/04 00:07:02;;;;;;;23.42;14.43;;;5.40;99.90;;;;;;5032650;28;20552;-72
2021/12/04 00:09:29;;;;;;;22.00;11.80;;;5.40;99.90;;;;;;5033807;28;20505;-72
2021/12/04 00:12:01;;;;;;;18.80;8.90;;;5.50;99.90;;;;;;5033793;28;20041;-72
2021/12/04 00:14:27;;;;;;;23.85;14.30;;;5.50;99.90;;;;;;5033768;28;20099;-72
2021/12/04 00:16:53;;;;;;;17.45;8.38;;;5.50;99.90;;;;;;5033831;28;20029;-72
2021/12/04 00:19:19;;;;;;;24.35;14.40;;;5.50;99.90;;;;;;5033696;28;20501;-72
2021/12/04 00:21:45;;;;;;;23.17;13.65;;;5.40;99.90;;;;;;5033445;28;20026;-72
2021/12/04 00:24:11;;;;;;;23.45;14.35;;;5.50;99.90;;;;;;5015763;28;20730;-72
2021/12/04 00:26:37;;;;;;;25.15;13.88;;;5.50;99.90;;;;;;5033822;28;20048;-72
2021/12/04 00:29:04;;;;;;;22.38;12.05;;;5.40;99.90;;;;;;5032335;28;20041;-72
2021/12/04 00:31:30;;;;;;;24.17;14.25;;;5.50;99.90;;;;;;5032060;28;20046;-72
2021/12/04 00:33:55;;;;;;;21.63;11.90;;;5.50;99.90;;;;;;5033312;28;20087;-72
2021/12/04 00:36:34;;;;;;;25.48;15.18;;;5.50;99.90;;;;;;5032055;28;20118;-72
2021/12/04 00:49:58;;;;;;;24.13;14.05;;;5.40;99.90;;;;;;5033256;28;20437;-72
2021/12/04 00:52:24;;;;;;;24.35;15.23;;;5.50;99.90;;;;;;5032928;28;20048;-72
2021/12/04 00:54:49;;;;;;;27.27;14.80;;;5.40;99.90;;;;;;5031578;28;20037;-72
2021/12/04 00:57:15;;;;;;;24.77;14.80;;;5.40;99.90;;;;;;5032993;28;20402;-72
2021/12/04 00:59:41;;;;;;;26.30;14.95;;;5.40;99.90;;;;;;5031394;28;20562;-72
2021/12/04 01:02:06;;;;;;;25.13;14.75;;;5.40;99.90;;;;;;5032868;28;20026;-72
2021/12/04 01:04:33;;;;;;;28.13;16.00;;;5.40;99.90;;;;;;5029117;28;20056;-72
2021/12/04 01:06:59;;;;;;;30.52;16.58;;;5.40;99.90;;;;;;5031390;28;20037;-72
2021/12/04 01:09:25;;;;;;;22.55;13.48;;;5.40;99.90;;;;;;5032178;28;20037;-72
2021/12/04 01:11:53;;;;;;;25.38;14.73;;;5.40;99.90;;;;;;5032623;28;20029;-72
2021/12/04 01:14:21;;;;;;;24.98;13.65;;;5.40;99.90;;;;;;5032834;28;20048;-72
2021/12/04 01:16:47;;;;;;;24.25;15.07;;;5.40;99.90;;;;;;5031575;28;20116;-72
2021/12/04 01:19:15;;;;;;;25.83;15.88;;;5.40;99.90;;;;;;5031732;28;20469;-72
2021/12/04 01:21:41;;;;;;;22.45;13.13;;;5.50;99.90;;;;;;5031359;28;20041;-72
2021/12/04 01:24:07;;;;;;;23.98;14.45;;;5.40;99.90;;;;;;5032706;28;20042;-72
2021/12/04 01:26:33;;;;;;;24.50;15.25;;;5.40;99.90;;;;;;5032603;28;20072;-72
2021/12/04 01:28:58;;;;;;;23.90;13.93;;;5.40;99.90;;;;;;5031386;28;20084;-72
2021/12/04 01:31:24;;;;;;;20.85;11.55;;;5.30;99.90;;;;;;5031613;28;20132;-72
2021/12/04 01:33:50;;;;;;;27.40;14.57;;;5.40;99.90;;;;;;5031243;28;20474;-72
2021/12/04 01:36:16;;;;;;;23.42;14.57;;;5.40;99.90;;;;;;5032656;28;20033;-72
2021/12/04 01:38:41;;;;;;;22.05;12.70;;;5.50;99.90;;;;;;5031150;28;20033;-72
2021/12/04 01:41:07;;;;;;;24.92;13.57;;;5.50;99.90;;;;;;5031212;28;20048;-72
2021/12/04 01:43:33;;;;;;;23.80;14.25;;;5.40;99.90;;;;;;5031302;28;20033;-72
2021/12/04 01:45:59;;;;;;;23.77;13.68;;;5.40;99.90;;;;;;5032666;28;20034;-72
2021/12/04 01:48:25;;;;;;;24.58;13.98;;;5.40;99.90;;;;;;5031193;28;20172;-72
2021/12/04 01:50:52;;;;;;;20.45;12.77;;;5.40;99.90;;;;;;5032492;28;20115;-72
2021/12/04 01:53:18;;;;;;;25.35;15.00;;;5.40;99.90;;;;;;5031435;28;20056;-72
2021/12/04 01:55:44;;;;;;;22.92;14.23;;;5.40;99.90;;;;;;5032206;28;20045;-72
2021/12/04 01:58:11;;;;;;;23.17;13.40;;;5.50;99.90;;;;;;5031352;28;20048;-72
2021/12/04 02:00:40;;;;;;;26.52;14.30;;;5.40;99.90;;;;;;5032364;28;20058;-72
2021/12/04 02:03:07;;;;;;;24.52;12.48;;;5.40;99.90;;;;;;5031281;28;20485;-72
2021/12/04 02:05:34;;;;;;;23.95;13.07;;;5.40;99.90;;;;;;5032311;28;20095;-72
2021/12/04 02:07:59;;;;;;;21.92;13.57;;;5.40;99.90;;;;;;5032223;28;20038;-72
2021/12/04 02:10:25;;;;;;;22.88;13.57;;;5.30;99.90;;;;;;5032383;28;20063;-72
2021/12/04 02:12:51;;;;;;;19.73;11.40;;;5.40;99.90;;;;;;5032086;28;20459;-72
2021/12/04 02:15:18;;;;;;;21.73;12.48;;;5.40;99.90;;;;;;5032266;28;20064;-72
2021/12/04 02:17:48;;;;;;;21.63;12.05;;;5.40;99.90;;;;;;5032345;28;20138;-72
2021/12/04 02:20:20;;;;;;;20.88;11.40;;;5.50;99.90;;;;;;5034108;28;20045;-72
2021/12/04 02:22:47;;;;;;;20.83;11.88;;;5.40;99.90;;;;;;5034449;28;20026;-72
2021/12/04 02:25:14;;;;;;;20.80;12.52;;;5.40;99.90;;;;;;5034775;28;20545;-72
2021/12/04 02:27:40;;;;;;;23.70;11.75;;;5.40;99.90;;;;;;5035863;28;20033;-72
2021/12/04 02:30:15;;;;;;;21.17;11.80;;;5.40;99.90;;;;;;5034570;28;20045;-72
2021/12/04 02:32:41;;;;;;;23.13;13.15;;;5.40;99.90;;;;;;5035774;28;20041;-72
2021/12/04 02:35:09;;;;;;;22.17;12.18;;;5.40;99.90;;;;;;5034358;28;20371;-72
2021/12/04 02:37:36;;;;;;;21.88;13.13;;;5.40;99.90;;;;;;5034424;28;20067;-72
2021/12/04 02:40:04;;;;;;;19.45;11.25;;;5.30;99.90;;;;;;5034368;28;20038;-72
2021/12/04 02:42:31;;;;;;;22.85;12.02;;;5.30;99.90;;;;;;5035598;28;20041;-72
2021/12/04 02:44:59;;;;;;;23.30;13.73;;;5.30;99.90;;;;;;5035421;28;20115;-72
2021/12/04 02:47:26;;;;;;;20.08;11.75;;;5.30;99.90;;;;;;5034180;28;20131;-72
2021/12/04 02:49:52;;;;;;;20.55;11.57;;;5.30;99.90;;;;;;5035342;28;20486;-72
2021/12/04 02:52:19;;;;;;;17.70;11.00;;;5.40;99.90;;;;;;5033942;28;20037;-72
2021/12/04 02:54:45;;;;;;;18.50;11.40;;;5.40;99.90;;;;;;5035381;28;20041;-72
2021/12/04 02:57:14;;;;;;;20.25;11.82;;;5.50;99.90;;;;;;5035176;28;20029;-72
2021/12/04 02:59:41;;;;;;;17.52;11.00;;;5.50;99.90;;;;;;5035282;28;20136;-72
2021/12/04 03:02:15;;;;;;;17.35;11.32;;;5.40;99.90;;;;;;5050544;28;20091;-72
2021/12/04 03:04:40;;;;;;;18.70;10.90;;;5.40;99.90;;;;;;5035421;28;20038;-72
2021/12/04 03:07:06;;;;;;;17.40;11.00;;;5.40;99.90;;;;;;5033819;28;20044;-72
2021/12/04 03:09:31;;;;;;;19.05;11.82;;;5.40;99.90;;;;;;5035219;28;20033;-72
2021/12/04 03:12:00;;;;;;;19.40;11.15;;;5.40;99.90;;;;;;5034800;28;20371;-72
2021/12/04 03:14:26;;;;;;;17.17;10.55;;;5.40;99.90;;;;;;5033694;28;20040;-72
2021/12/04 03:16:52;;;;;;;19.65;11.05;;;5.40;99.90;;;;;;5032570;28;20041;-72
2021/12/04 03:19:18;;;;;;;18.98;11.07;;;5.40;99.90;;;;;;5050322;28;20402;-72
2021/12/04 03:21:44;;;;;;;16.63;11.30;;;5.40;99.90;;;;;;5034213;28;20494;-72
2021/12/04 03:24:12;;;;;;;19.10;11.98;;;5.40;99.90;;;;;;5034683;28;20033;-72
2021/12/04 03:26:39;;;;;;;17.75;11.57;;;5.30;99.90;;;;;;5033607;28;20619;-72
2021/12/04 03:29:09;;;;;;;17.42;10.43;;;5.30;99.90;;;;;;5034702;28;20037;-72
2021/12/04 03:32:13;;;;;;;17.88;11.40;;;5.50;99.90;;;;;;5033713;28;20033;-72
2021/12/04 03:40:09;;;;;;;16.92;11.32;;;5.40;99.90;;;;;;5032532;28;20061;-72
2021/12/04 03:42:36;;;;;;;16.80;10.35;;;5.40;99.90;;;;;;5032502;28;20516;-72
2021/12/04 03:45:05;;;;;;;18.70;11.40;;;5.40;99.90;;;;;;5034447;28;20493;-72
2021/12/04 03:47:31;;;;;;;17.65;11.75;;;5.40;99.90;;;;;;5033227;28;20041;-72
2021/12/04 03:49:57;;;;;;;15.88;10.25;;;5.40;99.90;;;;;;5030836;28;20547;-72
2021/12/04 03:52:22;;;;;;;18.27;11.07;;;5.40;99.90;;;;;;5033018;28;20052;-72
2021/12/04 03:54:48;;;;;;;16.85;10.15;;;5.40;99.90;;;;;;5015780;28;20037;-72
2021/12/04 03:57:14;;;;;;;16.58;9.60;;;5.30;99.90;;;;;;5032995;28;20123;-72
2021/12/04 03:59:44;;;;;;;17.23;10.45;;;5.30;99.90;;;;;;5032929;28;20490;-72
2021/12/04 04:02:11;;;;;;;16.77;10.10;;;5.40;99.90;;;;;;5049418;28;20482;-72
2021/12/04 04:04:37;;;;;;;17.83;10.23;;;5.40;99.90;;;;;;5033805;28;20497;-72
2021/12/04 04:07:03;;;;;;;17.67;9.95;;;5.30;99.90;;;;;;5033849;28;20049;-72
2021/12/04 04:09:29;;;;;;;14.88;8.88;;;5.40;99.90;;;;;;5032642;28;20040;-72
2021/12/04 04:11:56;;;;;;;16.80;9.93;;;5.40;99.90;;;;;;5033969;28;20038;-72
2021/12/04 04:14:23;;;;;;;15.20;8.70;;;5.40;99.90;;;;;;5032371;28;20041;-72
2021/12/04 04:16:49;;;;;;;14.75;8.30;;;5.40;99.90;;;;;;5032442;28;20055;-72
2021/12/04 04:19:15;;;;;;;14.65;8.57;;;5.40;99.90;;;;;;5033655;28;20051;-72
2021/12/04 04:21:44;;;;;;;16.17;8.90;;;5.40;99.90;;;;;;5015784;28;20549;-72
2021/12/04 04:24:11;;;;;;;17.15;8.95;;;5.40;99.90;;;;;;5033711;28;20038;-72
2021/12/04 04:26:38;;;;;;;15.77;9.25;;;5.40;99.90;;;;;;5033833;28;20112;-72
2021/12/04 04:29:05;;;;;;;15.55;8.65;;;5.40;99.90;;;;;;5032293;28;20037;-72
2021/12/04 04:31:33;;;;;;;16.20;9.40;;;5.30;99.90;;;;;;5015796;28;20478;-72
2021/12/04 04:34:05;;;;;;;14.82;8.93;;;5.30;99.90;;;;;;5033220;28;20048;-72
2021/12/04 05:11:44;;;;;;;17.25;9.57;;;5.20;99.90;;;;;;5032228;28;20049;-72
2021/12/04 05:14:17;;;;;;;17.50;10.32;;;5.20;99.90;;;;;;5032586;28;20504;-72
2021/12/04 05:16:49;;;;;;;16.13;9.80;;;5.20;99.90;;;;;;5032847;28;20037;-72
2021/12/04 05:19:26;;;;;;;15.63;8.68;;;5.20;99.90;;;;;;5032809;28;20044;-72
2021/12/04 05:21:53;;;;;;;17.48;9.45;;;5.20;99.90;;;;;;5031614;28;20044;-72
2021/12/04 05:24:19;;;;;;;17.42;10.13;;;5.20;99.90;;;;;;5032757;28;20041;-72
2021/12/04 05:26:44;;;;;;;17.30;10.13;;;5.20;99.90;;;;;;5015223;28;20037;-72
2021/12/04 05:29:10;;;;;;;16.60;9.63;;;5.20;99.90;;;;;;5015290;28;20044;-72
2021/12/04 05:31:35;;;;;;;17.17;9.90;;;5.10;99.90;;;;;;5032611;28;20052;-72
2021/12/04 05:34:01;;;;;;;18.02;10.23;;;5.10;99.90;;;;;;5032653;28;20052;-72
2021/12/04 05:36:26;;;;;;;15.77;9.60;;;5.10;99.90;;;;;;5032499;28;20041;-72
2021/12/04 05:38:52;;;;;;;18.98;10.15;;;5.20;99.90;;;;;;5032731;28;20068;-72
2021/12/04 05:41:18;;;;;;;17.10;9.73;;;5.20;99.90;;;;;;5032465;28;20043;-72
2021/12/04 05:43:44;;;;;;;18.95;10.15;;;5.10;99.90;;;;;;5032464;28;20525;-72
2021/12/04 05:46:16;;;;;;;17.05;9.60;;;5.10;99.90;;;;;;5031223;28;20053;-72
2021/12/04 05:48:48;;;;;;;19.60;10.48;;;5.10;99.90;;;;;;5032440;28;20033;-72
2021/12/04 05:51:26;;;;;;;18.73;10.30;;;5.10;99.90;;;;;;5032661;28;20044;-72
2021/12/04 05:56:19;;;;;;;18.70;10.32;;;5.10;99.90;;;;;;5035113;28;20128;-72
2021/12/04 05:58:45;;;;;;;14.93;9.57;;;5.00;99.90;;;;;;5036253;28;20049;-72
2021/12/04 06:01:12;;;;;;;19.88;9.73;;;5.10;99.90;;;;;;5036452;28;20040;-72
2021/12/04 06:03:38;;;;;;;19.27;10.40;;;5.10;99.90;;;;;;5036204;28;20038;-72
2021/12/04 06:06:03;;;;;;;20.80;10.15;;;5.10;99.90;;;;;;5036174;28;20041;-72
2021/12/04 06:08:29;;;;;;;20.40;9.57;;;5.20;99.90;;;;;;5036123;28;20053;-72
2021/12/04 06:10:56;;;;;;;18.80;10.02;;;5.20;99.90;;;;;;5036235;28;20033;-72
2021/12/04 06:13:22;;;;;;;17.35;8.98;;;5.20;99.90;;;;;;5036147;28;20065;-72
2021/12/04 06:15:48;;;;;;;20.00;10.43;;;5.20;99.90;;;;;;5035912;28;20116;-72
2021/12/04 06:18:15;;;;;;;19.48;10.07;;;5.20;99.90;;;;;;5035958;28;20168;-72
2021/12/04 06:23:27;;;;;;;20.08;10.25;;;5.20;99.90;;;;;;5035865;28;20489;-72
2021/12/04 06:25:52;;;;;;;20.30;10.90;;;5.10;99.90;;;;;;5035751;28;20044;-72
2021/12/04 06:28:18;;;;;;;18.27;9.73;;;5.10;99.90;;;;;;5035845;28;20045;-72
2021/12/04 06:30:44;;;;;;;20.25;10.68;;;5.10;99.90;;;;;;5034464;28;20111;-72
2021/12/04 06:33:12;;;;;;;19.67;10.60;;;5.20;99.90;;;;;;5035964;28;20474;-72
2021/12/04 06:35:41;;;;;;;18.70;9.15;;;5.20;99.90;;;;;;5035573;28;20041;-72
2021/12/04 06:38:12;;;;;;;19.00;10.38;;;5.20;99.90;;;;;;5034357;28;20037;-72
2021/12/04 06:40:38;;;;;;;20.73;10.75;;;5.20;99.90;;;;;;5035696;28;20113;-72
2021/12/04 06:43:06;;;;;;;17.75;9.07;;;5.10;99.90;;;;;;5034376;28;20083;-72
2021/12/04 06:45:34;;;;;;;18.80;9.85;;;5.20;99.90;;;;;;5035591;28;20042;-72
2021/12/04 06:48:05;;;;;;;21.15;10.52;;;5.30;99.90;;;;;;5035742;28;20084;-72
2021/12/04 06:53:00;;;;;;;17.48;9.50;;;5.30;99.90;;;;;;5035413;28;20127;-72
2021/12/04 06:55:29;;;;;;;19.08;9.82;;;5.40;99.90;;;;;;5033888;28;20034;-72
2021/12/04 06:57:55;;;;;;;17.58;9.23;;;5.20;99.90;;;;;;5034009;28;20112;-72
2021/12/04 07:00:23;;;;;;;19.25;10.10;;;5.20;99.90;;;;;;5035153;28;20092;-72
2021/12/04 07:02:48;;;;;;;20.33;9.68;;;5.20;99.90;;;;;;5035336;28;20480;-72
2021/12/04 07:05:14;;;;;;;17.35;8.90;;;5.20;99.90;;;;;;5034779;28;20077;-72
2021/12/04 07:07:40;;;;;;;18.92;9.77;;;5.30;99.90;;;;;;5033958;28;20049;-72
2021/12/04 07:10:06;;;;;;;18.83;9.85;;;5.40;99.90;;;;;;5034911;28;20025;-72
2021/12/04 07:12:31;;;;;;;19.02;10.13;;;5.20;99.90;;;;;;5035235;28;20069;-72
2021/12/04 07:14:57;;;;;;;16.90;8.68;;;5.10;99.90;;;;;;5034893;28;20038;-72
2021/12/04 07:17:22;;;;;;;18.38;9.57;;;5.20;99.90;;;;;;5034945;28;20485;-72
2021/12/04 07:19:48;;;;;;;19.45;9.93;;;5.20;99.90;;;;;;5034892;28;20103;-72
2021/12/04 07:22:13;;;;;;;18.70;10.85;;;5.20;99.90;;;;;;5033802;28;20378;-72
2021/12/04 07:24:39;;;;;;;18.38;9.85;;;5.10;99.90;;;;;;5034715;28;20033;-72
2021/12/04 07:27:06;;;;;;;19.13;10.02;;;5.10;99.90;;;;;;5034909;28;20440;-72
2021/12/04 07:29:31;;;;;;;18.65;9.73;;;5.20;99.90;;;;;;5033462;28;20512;-72
2021/12/04 07:31:57;;;;;;;17.35;9.80;;;5.20;99.90;;;;;;5034871;28;20037;-72
2021/12/04 07:34:23;;;;;;;20.02;10.20;;;5.10;99.90;;;;;;5034624;28;20497;-72
2021/12/04 07:36:48;;;;;;;18.10;9.80;;;5.20;99.90;;;;;;5016871;28;20033;-72
2021/12/04 07:39:14;;;;;;;18.17;8.98;;;5.20;99.90;;;;;;5033193;28;20087;-72
2021/12/04 07:41:42;;;;;;;16.92;9.75;;;5.10;99.90;;;;;;5034683;28;20072;-72
2021/12/04 07:44:09;;;;;;;17.60;8.57;;;5.30;99.90;;;;;;5034559;28;20037;-72
2021/12/04 07:46:39;;;;;;;16.63;9.18;;;5.30;99.90;;;;;;5034241;28;20528;-72
2021/12/04 07:49:05;;;;;;;18.13;9.57;;;5.30;99.90;;;;;;5033064;28;20044;-72
2021/12/04 07:51:31;;;;;;;15.07;9.10;;;5.20;99.90;;;;;;5034329;28;20048;-72
2021/12/04 07:53:58;;;;;;;15.63;8.95;;;5.10;99.90;;;;;;5034176;28;20067;-72
2021/12/04 07:56:23;;;;;;;14.98;8.85;;;5.10;99.90;;;;;;5032792;28;20041;-72
2021/12/04 07:58:49;;;;;;;15.82;9.07;;;5.20;99.90;;;;;;5032947;28;20053;-71
2021/12/04 08:01:16;;;;;;;16.15;9.25;;;5.30;99.90;;;;;;5016438;28;20037;-72
2021/12/04 08:03:41;;;;;;;15.60;8.80;;;5.40;99.90;;;;;;5034108;28;20390;-72
2021/12/04 08:06:07;;;;;;;14.85;8.95;;;5.20;99.90;;;;;;5032616;28;20037;-72
2021/12/04 08:08:33;;;;;;;14.50;7.15;;;5.30;99.90;;;;;;5033878;28;20034;-72
2021/12/04 08:10:59;;;;;;;14.48;8.70;;;5.40;99.90;;;;;;5033783;28;20513;-72
2021/12/04 08:13:25;;;;;;;15.70;8.43;;;5.20;99.90;;;;;;5032625;28;20116;-72
2021/12/04 08:15:51;;;;;;;16.33;8.13;;;5.10;99.90;;;;;;5031384;28;20038;-72
2021/12/04 08:18:16;;;;;;;15.90;8.85;;;5.10;99.90;;;;;;5033136;28;20040;-72
2021/12/04 08:20:42;;;;;;;14.25;6.43;;;5.10;99.90;;;;;;5033840;28;20030;-72
2021/12/04 08:23:07;;;;;;;14.65;8.10;;;5.20;99.90;;;;;;5033643;28;20116;-72
2021/12/04 08:25:34;;;;;;;12.98;7.32;;;5.20;99.90;;;;;;5033819;28;20036;-72
2021/12/04 08:28:01;;;;;;;14.93;7.60;;;5.30;99.90;;;;;;5033393;28;20038;-72
2021/12/04 08:30:40;;;;;;;14.23;7.68;;;5.20;99.90;;;;;;5033574;28;20112;-72
2021/12/04 08:33:07;;;;;;;13.77;7.78;;;5.20;99.90;;;;;;5033587;28;20048;-72
2021/12/04 08:35:39;;;;;;;13.40;7.55;;;5.10;99.90;;;;;;5033127;28;20037;-72
2021/12/04 08:38:06;;;;;;;14.10;7.22;;;5.10;99.90;;;;;;5032460;28;20494;-72
2021/12/04 08:40:32;;;;;;;13.65;7.28;;;5.10;99.90;;;;;;5033517;28;20368;-72
2021/12/04 08:42:58;;;;;;;12.00;6.78;;;5.10;99.90;;;;;;5031988;28;20079;-72
2021/12/04 08:45:25;;;;;;;10.80;6.07;;;5.20;99.90;;;;;;5033371;28;20045;-72
2021/12/04 08:47:51;;;;;;;10.63;6.25;;;5.20;99.90;;;;;;5032051;28;20045;-72
2021/12/04 08:50:23;;;;;;;10.88;6.45;;;5.30;99.90;;;;;;5033112;28;20037;-72
2021/12/04 08:52:49;;;;;;;10.93;6.25;;;5.30;99.90;;;;;;5033409;28;20048;-72
2021/12/04 08:55:16;;;;;;;10.45;5.78;;;5.30;99.90;;;;;;5033102;28;20037;-72
2021/12/04 08:57:43;;;;;;;11.20;6.75;;;5.40;99.90;;;;;;5033025;28;20072;-72
2021/12/04 09:00:13;;;;;;;11.70;7.25;;;5.40;99.90;;;;;;5048118;28;20053;-72
2021/12/04 09:02:39;;;;;;;11.73;7.45;;;5.30;99.90;;;;;;5031685;28;20061;-72
2021/12/04 09:05:07;;;;;;;11.63;7.07;;;5.30;99.90;;;;;;5032923;28;20117;-72
2021/12/04 09:07:33;;;;;;;10.20;5.43;;;5.40;99.90;;;;;;5032968;28;20461;-72
2021/12/04 09:09:58;;;;;;;13.10;8.10;;;5.40;99.90;;;;;;5032906;28;20114;-72
2021/12/04 09:12:27;;;;;;;13.20;7.50;;;5.40;99.90;;;;;;5031731;28;20048;-72
2021/12/04 09:14:55;;;;;;;14.88;5.35;;;5.40;99.90;;;;;;5031503;28;20049;-72
2021/12/04 09:17:21;;;;;;;8.18;4.60;;;5.40;99.90;;;;;;5031436;28;20041;-72
2021/12/04 09:19:47;;;;;;;12.55;7.63;;;5.60;99.90;;;;;;5031489;28;20042;-72
2021/12/04 09:22:23;;;;;;;14.07;8.13;;;5.50;99.90;;;;;;5032932;28;20074;-72
2021/12/04 09:24:53;;;;;;;12.45;7.05;;;5.40;99.90;;;;;;5032789;28;20099;-72
2021/12/04 09:27:38;;;;;;;12.27;7.22;;;5.50;99.90;;;;;;5031632;28;20159;-72
2021/12/04 09:32:52;;;;;;;12.88;8.02;;;5.50;99.90;;;;;;5031255;28;20041;-72
2021/12/04 09:35:51;;;;;;;14.38;7.82;;;5.40;99.90;;;;;;5032266;28;20052;-72
2021/12/04 10:03:17;;;;;;;13.55;7.20;;;5.60;99.90;;;;;;5032379;28;20042;-72
2021/12/04 10:11:49;;;;;;;13.43;8.10;;;5.70;99.90;;;;;;5032203;28;20041;-72
2021/12/04 10:19:59;;;;;;;14.75;7.55;;;5.80;99.90;;;;;;5031249;28;20041;-72
2021/12/04 10:22:34;;;;;;;12.95;7.50;;;5.80;99.90;;;;;;5031108;28;20048;-72
2021/12/04 10:33:43;;;;;;;11.90;7.10;;;5.70;99.90;;;;;;5031218;28;20049;-72
2021/12/04 10:36:10;;;;;;;14.63;8.73;;;5.80;99.90;;;;;;5030681;28;20072;-72
2021/12/04 10:38:43;;;;;;;16.98;8.95;;;5.70;99.90;;;;;;5014589;28;20033;-72
2021/12/04 10:41:11;;;;;;;13.10;7.32;;;5.80;99.90;;;;;;5033814;28;20080;-72
2021/12/04 10:43:37;;;;;;;13.35;6.75;;;5.80;99.90;;;;;;5034378;28;20145;-72
2021/12/04 10:46:14;;;;;;;12.88;7.32;;;5.70;99.90;;;;;;5035562;28;20113;-72
2021/12/04 10:48:48;;;;;;;14.80;8.00;;;5.70;99.90;;;;;;5035514;28;20033;-72
2021/12/04 10:54:24;;;;;;;10.52;5.45;;;5.80;99.90;;;;;;5001822;28;20046;-72
2021/12/04 11:01:53;;;;;;;14.02;8.38;;;5.80;99.90;;;;;;5035483;28;20441;-72
2021/12/04 11:04:42;;;;;;;16.13;8.65;;;5.80;99.90;;;;;;5035211;28;20521;-72
2021/12/04 11:07:32;;;;;;;14.23;7.93;;;5.80;99.90;;;;;;5035156;28;20120;-72
2021/12/04 11:42:57;;;;;;;18.77;9.63;;;6.00;99.90;;;;;;5034536;28;20552;-72
2021/12/04 11:45:29;;;;;;;19.25;10.32;;;6.00;99.90;;;;;;5034530;28;20111;-72
2021/12/04 11:48:01;;;;;;;19.03;10.10;;;5.90;99.90;;;;;;5016633;28;20044;-72
2021/12/04 11:50:28;;;;;;;;;;;5.80;99.90;;;;;;5033692;28;20837;-72
2021/12/04 11:52:59;;;;;;;15.82;8.63;;;5.70;99.90;;;;;;5033331;28;19967;-72
2021/12/04 11:55:29;;;;;;;19.25;9.52;;;5.90;99.90;;;;;;5016379;28;20494;-72
2021/12/04 11:57:56;;;;;;;17.02;9.00;;;5.80;99.90;;;;;;5032879;28;20373;-72
2021/12/04 12:00:28;;;;;;;17.67;9.55;;;5.90;99.90;;;;;;5033911;28;20045;-72
2021/12/04 12:03:16;;;;;;;14.73;7.60;;;5.80;99.90;;;;;;5034137;28;20044;-72
2021/12/04 12:05:50;;;;;;;20.55;9.73;;;5.80;99.90;;;;;;5034225;28;20405;-73
2021/12/04 12:08:20;;;;;;;19.65;10.65;;;5.90;99.90;;;;;;5032951;28;20038;-72
2021/12/04 12:10:49;;;;;;;19.50;10.20;;;6.00;99.90;;;;;;5034258;28;20073;-72
2021/12/04 12:13:30;;;;;;;18.13;9.82;;;5.90;99.90;;;;;;5032667;28;20049;-72
2021/12/04 12:16:10;;;;;;;20.20;10.73;;;6.00;99.90;;;;;;5032660;28;20048;-72
2021/12/04 12:18:45;;;;;;;21.23;12.20;;;5.90;99.90;;;;;;5032465;28;20498;-72
2021/12/04 12:21:13;;;;;;;21.08;11.10;;;6.00;99.90;;;;;;5032712;28;20033;-72
2021/12/04 12:27:00;;;;;;;22.65;11.70;;;5.90;99.90;;;;;;5033591;28;20046;-72
2021/12/04 12:38:56;;;;;;;13.27;6.78;;;6.00;99.90;;;;;;5030772;28;20073;-72
2021/12/04 12:41:27;;;;;;;23.75;12.57;;;6.20;99.90;;;;;;5033349;28;20083;-72
2021/12/04 12:44:14;;;;;;;25.75;13.10;;;6.10;99.90;;;;;;5033594;28;20091;-73
2021/12/04 12:46:51;;;;;;;18.52;10.15;;;6.10;99.90;;;;;;5032056;28;20042;-72
2021/12/04 12:49:37;;;;;;;26.50;13.18;;;6.10;99.90;;;;;;5032166;28;20059;-73
2021/12/04 12:52:08;;;;;;;23.90;11.73;;;6.00;99.90;;;;;;5033324;28;20044;-73
2021/12/04 12:54:40;;;;;;;25.23;13.48;;;6.10;99.90;;;;;;5033255;28;20048;-73
2021/12/04 12:57:09;;;;;;;26.73;13.85;;;6.10;99.90;;;;;;5015583;28;20038;-73
2021/12/04 13:11:36;;;;;;;31.00;16.50;;;6.00;99.90;;;;;;5032786;28;20053;-72
2021/12/04 13:14:15;;;;;;;36.08;15.43;;;6.00;99.90;;;;;;5031920;28;20049;-72
2021/12/04 13:16:51;;;;;;;33.97;15.32;;;5.90;99.90;;;;;;5032760;28;20037;-72
2021/12/04 13:19:21;;;;;;;34.90;16.50;;;6.00;99.90;;;;;;5032664;28;20493;-73
2021/12/04 13:21:51;;;;;;;39.20;18.27;;;5.90;99.90;;;;;;5032751;28;20509;-72
2021/12/04 13:24:18;;;;;;;38.38;17.55;;;5.80;99.90;;;;;;5032954;28;20048;-72
2021/12/04 13:26:47;;;;;;;34.65;16.70;;;5.80;99.90;;;;;;5032695;28;20425;-72
2021/12/04 13:29:16;;;;;;;42.42;19.75;;;5.90;99.90;;;;;;5031312;28;20048;-72
2021/12/04 13:31:42;;;;;;;31.30;15.35;;;5.80;99.90;;;;;;5032542;28;20064;-73
2021/12/04 13:34:10;;;;;;;37.13;17.98;;;5.90;99.90;;;;;;5032867;28;20502;-73
2021/12/04 13:36:36;;;;;;;37.67;17.90;;;5.90;99.90;;;;;;5031349;28;20049;-73
2021/12/04 13:39:07;;;;;;;38.63;18.48;;;5.90;99.90;;;;;;5032447;28;20092;-72
2021/12/04 13:41:34;;;;;;;35.13;16.77;;;5.80;99.90;;;;;;5032451;28;20050;-72
2021/12/04 13:44:02;;;;;;;38.28;18.08;;;5.90;99.90;;;;;;5032563;28;20388;-73
2021/12/04 13:46:36;;;;;;;36.67;18.00;;;5.90;99.90;;;;;;5031408;28;20041;-72
2021/12/04 13:49:03;;;;;;;36.67;17.80;;;5.80;99.90;;;;;;5032439;28;20120;-72
2021/12/04 13:51:29;;;;;;;35.08;16.65;;;5.90;99.90;;;;;;5014790;28;20041;-73
2021/12/04 13:53:54;;;;;;;34.92;17.45;;;5.90;99.90;;;;;;5032389;28;20107;-72
2021/12/04 13:56:22;;;;;;;28.27;14.88;;;5.80;99.90;;;;;;5014615;28;20034;-72
2021/12/04 13:58:52;;;;;;;32.40;15.90;;;5.90;99.90;;;;;;5031007;28;20052;-72
2021/12/04 14:01:19;;;;;;;29.85;14.93;;;6.00;99.90;;;;;;5031032;28;20056;-72
2021/12/04 14:03:47;;;;;;;27.63;14.38;;;5.90;99.90;;;;;;5032469;28;20449;-72
2021/12/04 14:06:15;;;;;;;29.83;14.95;;;5.90;99.90;;;;;;5031042;28;20053;-72
2021/12/04 14:08:42;;;;;;;29.10;14.38;;;6.00;99.90;;;;;;5032305;28;20120;-72
2021/12/04 14:11:08;;;;;;;28.05;14.23;;;5.90;99.90;;;;;;5031046;28;20447;-72
2021/12/04 14:13:36;;;;;;;30.88;15.35;;;6.00;99.90;;;;;;5014616;28;20088;-72
2021/12/04 14:16:02;;;;;;;27.02;14.60;;;5.90;99.90;;;;;;5033824;28;20081;-72
2021/12/04 14:18:29;;;;;;;30.98;15.00;;;5.90;99.90;;;;;;5034755;28;20528;-72
2021/12/04 14:21:02;;;;;;;30.13;15.23;;;5.90;99.90;;;;;;5035950;28;20056;-72
2021/12/04 14:23:33;;;;;;;31.08;16.48;;;6.00;99.90;;;;;;5034006;28;20044;-72
2021/12/04 14:26:03;;;;;;;30.73;15.30;;;6.10;99.90;;;;;;5018359;28;20095;-72
2021/12/04 14:28:33;;;;;;;34.22;17.30;;;6.00;99.90;;;;;;5035826;28;20041;-72
2021/12/04 14:30:58;;;;;;;30.38;16.70;;;5.90;99.90;;;;;;5018319;28;20079;-72
2021/12/04 14:33:26;;;;;;;34.90;16.58;;;5.90;99.90;;;;;;5034397;28;20116;-72
2021/12/04 14:35:53;;;;;;;32.53;17.17;;;6.00;99.90;;;;;;5035630;28;20038;-72
2021/12/04 14:38:24;;;;;;;31.92;16.95;;;6.00;99.90;;;;;;5034588;28;20056;-72
2021/12/04 14:40:53;;;;;;;33.55;16.95;;;5.90;99.90;;;;;;5034354;28;20390;-72
2021/12/04 14:43:22;;;;;;;36.28;19.00;;;5.90;99.90;;;;;;5034308;28;20040;-72
2021/12/04 14:45:51;;;;;;;33.90;16.52;;;5.90;99.90;;;;;;5035640;28;20116;-72
2021/12/04 14:48:26;;;;;;;35.50;17.67;;;6.00;99.90;;;;;;5035553;28;20044;-72
2021/12/04 14:51:02;;;;;;;35.15;17.48;;;6.10;99.90;;;;;;5034119;28;20091;-72
2021/12/04 14:53:28;;;;;;;32.38;14.93;;;6.10;99.90;;;;;;5034213;28;20052;-72
2021/12/04 14:55:55;;;;;;;36.22;17.58;;;6.20;99.90;;;;;;5034007;28;20409;-72
2021/12/04 14:58:24;;;;;;;36.35;18.20;;;6.00;99.90;;;;;;5035311;28;20525;-72
2021/12/04 15:00:59;;;;;;;32.15;17.50;;;6.00;99.90;;;;;;5033748;28;20092;-72
2021/12/04 15:03:33;;;;;;;33.42;17.30;;;6.00;99.90;;;;;;5033957;28;20041;-72
2021/12/04 15:06:01;;;;;;;35.58;17.63;;;6.10;99.90;;;;;;5033928;28;20048;-72
2021/12/04 15:08:33;;;;;;;34.25;18.02;;;6.00;99.90;;;;;;5035217;28;20069;-72
2021/12/04 15:11:13;;;;;;;35.10;18.23;;;6.00;99.90;;;;;;5035061;28;20037;-72
2021/12/04 15:13:46;;;;;;;35.45;16.70;;;5.90;99.90;;;;;;5035119;28;20084;-72
2021/12/04 15:16:16;;;;;;;35.83;18.95;;;6.00;99.90;;;;;;5035176;28;20113;-72
2021/12/04 15:18:41;;;;;;;35.40;18.45;;;5.90;99.90;;;;;;5033785;28;20037;-72
2021/12/04 15:21:15;;;;;;;38.20;19.13;;;5.90;99.90;;;;;;5034814;28;20474;-72
2021/12/04 15:23:44;;;;;;;33.35;17.35;;;5.80;99.90;;;;;;5033645;28;20038;-72
2021/12/04 15:26:15;;;;;;;30.38;15.93;;;5.90;99.90;;;;;;5034579;28;20045;-72
2021/12/04 15:28:49;;;;;;;37.88;18.65;;;6.00;99.90;;;;;;5035064;28;20113;-72
2021/12/04 15:31:15;;;;;;;35.03;18.38;;;6.00;99.90;;;;;;5034668;28;20392;-72
2021/12/04 15:33:45;;;;;;;34.92;18.75;;;5.90;99.90;;;;;;5034661;28;20049;-71
2021/12/04 15:36:28;;;;;;;36.22;18.83;;;5.90;99.90;;;;;;5034582;28;20087;-71
2021/12/04 15:38:57;;;;;;;34.42;18.92;;;5.80;99.90;;;;;;5034537;28;20046;-71
2021/12/04 15:46:58;;;;;;;36.70;18.17;;;5.90;99.90;;;;;;5033454;28;20049;-71